sensor_id;sensor_type;location;lat;lon;timestamp;temperature;humidity
21123;DHT22;10719;48.130;11.630;2022-12-29T00:01:32;2.90;99.90
21123;DHT22;10719;48.130;11.630;2022-12-29T00:03:58;3.00;99.90
21123;DHT22;10719;48.130;11.630;2022-12-29T00:06:24;3.00;99.90
21123;DHT22;10719;48.130;11.630;2022-12-29T00:08:50;3.10;99.90
21123;DHT22;10719;48.130;11.630;2022-12-29T00:11:22;3.20;99.90
21123;DHT22;10719;48.130;11.630;2022-12-29T00:13:48;3.20;99.90
21123;DHT22;10719;48.130;11.630;2022-12-29T00:16:34;3.30;99.90
21123;DHT22;10719;48.130;11.630;2022-12-29T00:19:01;3.30;99.90
21123;DHT22;10719;48.130;11.630;2022-12-29T00:21:27;3.40;99.90
21123;DHT22;10719;48.130;11.630;2022-12-29T00:24:17;3.40;99.90
21123;DHT22;10719;48.130;11.630;2022-12-29T00:27:19;3.40;99.90
21123;DHT22;10719;48.130;11.630;2022-12-29T00:30:02;3.40;99.90
21123;DHT22;10719;48.130;11.630;2022-12-29T00:32:47;3.30;99.90
21123;DHT22;10719;48.130;11.630;2022-12-29T00:35:56;3.30;99.90
21123;DHT22;10719;48.130;11.630;2022-12-29T00:38:23;3.30;99.90
21123;DHT22;10719;48.130;11.630;2022-12-29T00:41:07;3.30;99.90
21123;DHT22;10719;48.130;11.630;2022-12-29T00:43:51;3.30;99.90
21123;DHT22;10719;48.130;11.630;2022-12-29T00:46:35;3.20;99.90
21123;DHT22;10719;48.130;11.630;2022-12-29T00:49:02;3.20;99.90
21123;DHT22;10719;48.130;11.630;2022-12-29T00:51:47;3.10;99.90
21123;DHT22;10719;48.130;11.630;2022-12-29T00:54:13;3.10;99.90
21123;DHT22;10719;48.130;11.630;2022-12-29T00:56:38;3.10;99.90
21123;DHT22;10719;48.130;11.630;2022-12-29T00:59:09;3.10;99.90
21123;DHT22;10719;48.130;11.630;2022-12-29T01:01:36;3.20;99.90
21123;DHT22;10719;48.130;11.630;2022-12-29T01:04:03;3.10;99.90
21123;DHT22;10719;48.130;11.630;2022-12-29T01:06:28;3.10;99.90
21123;DHT22;10719;48.130;11.630;2022-12-29T01:08:54;3.10;99.90
21123;DHT22;10719;48.130;11.630;2022-12-29T01:11:39;3.10;99.90
21123;DHT22;10719;48.130;11.630;2022-12-29T01:14:05;3.10;99.90
21123;DHT22;10719;48.130;11.630;2022-12-29T01:16:31;3.10;99.90
21123;DHT22;10719;48.130;11.630;2022-12-29T01:18:57;3.10;99.90
21123;DHT22;10719;48.130;11.630;2022-12-29T01:21:23;3.10;99.90
21123;DHT22;10719;48.130;11.630;2022-12-29T01:23:49;3.10;99.90
21123;DHT22;10719;48.130;11.630;2022-12-29T01:26:16;3.10;99.90
21123;DHT22;10719;48.130;11.630;2022-12-29T01:28:41;3.00;99.90
21123;DHT22;10719;48.130;11.630;2022-12-29T01:31:11;3.10;99.90
21123;DHT22;10719;48.130;11.630;2022-12-29T01:33:38;3.10;99.90
21123;DHT22;10719;48.130;11.630;2022-12-29T01:36:06;3.10;99.90
21123;DHT22;10719;48.130;11.630;2022-12-29T01:38:32;3.10;99.90
21123;DHT22;10719;48.130;11.630;2022-12-29T01:40:58;3.10;99.90
21123;DHT22;10719;48.130;11.630;2022-12-29T01:46:34;3.10;99.90
21123;DHT22;10719;48.130;11.630;2022-12-29T01:51:37;3.10;99.90
21123;DHT22;10719;48.130;11.630;2022-12-29T01:54:08;3.20;99.90
21123;DHT22;10719;48.130;11.630;2022-12-29T01:56:35;3.30;99.90
21123;DHT22;10719;48.130;11.630;2022-12-29T01:59:05;3.30;99.90
21123;DHT22;10719;48.130;11.630;2022-12-29T02:01:32;3.30;99.90
21123;DHT22;10719;48.130;11.630;2022-12-29T02:03:58;3.30;99.90
21123;DHT22;10719;48.130;11.630;2022-12-29T02:06:29;3.20;99.90
21123;DHT22;10719;48.130;11.630;2022-12-29T02:08:56;3.20;99.90
21123;DHT22;10719;48.130;11.630;2022-12-29T02:11:25;3.20;99.90
21123;DHT22;10719;48.130;11.630;2022-12-29T02:13:51;3.20;99.90
21123;DHT22;10719;48.130;11.630;2022-12-29T02:16:29;3.20;99.90
21123;DHT22;10719;48.130;11.630;2022-12-29T02:38:47;3.20;99.90
21123;DHT22;10719;48.130;11.630;2022-12-29T02:41:32;3.20;99.90
21123;DHT22;10719;48.130;11.630;2022-12-29T02:44:21;3.30;99.90
21123;DHT22;10719;48.130;11.630;2022-12-29T02:49:35;3.40;99.90
21123;DHT22;10719;48.130;11.630;2022-12-29T02:52:08;3.40;99.90
21123;DHT22;10719;48.130;11.630;2022-12-29T02:54:36;3.50;99.90
21123;DHT22;10719;48.130;11.630;2022-12-29T02:57:34;3.50;99.90
21123;DHT22;10719;48.130;11.630;2022-12-29T03:00:15;3.50;99.90
21123;DHT22;10719;48.130;11.630;2022-12-29T03:16:23;3.90;99.90
21123;DHT22;10719;48.130;11.630;2022-12-29T03:19:09;4.10;99.90
21123;DHT22;10719;48.130;11.630;2022-12-29T03:21:46;4.10;99.90
21123;DHT22;10719;48.130;11.630;2022-12-29T03:24:35;4.20;99.90
21123;DHT22;10719;48.130;11.630;2022-12-29T03:27:04;4.40;99.90
21123;DHT22;10719;48.130;11.630;2022-12-29T03:29:34;4.50;99.90
21123;DHT22;10719;48.130;11.630;2022-12-29T03:32:02;4.50;99.90
21123;DHT22;10719;48.130;11.630;2022-12-29T03:34:30;4.50;99.90
21123;DHT22;10719;48.130;11.630;2022-12-29T03:37:11;4.60;99.90
21123;DHT22;10719;48.130;11.630;2022-12-29T03:39:38;4.70;99.90
21123;DHT22;10719;48.130;11.630;2022-12-29T03:42:15;4.70;99.90
21123;DHT22;10719;48.130;11.630;2022-12-29T03:44:44;4.70;99.90
21123;DHT22;10719;48.130;11.630;2022-12-29T03:47:11;4.80;99.90
21123;DHT22;10719;48.130;11.630;2022-12-29T03:49:37;4.80;99.90
21123;DHT22;10719;48.130;11.630;2022-12-29T03:52:03;4.90;99.90
21123;DHT22;10719;48.130;11.630;2022-12-29T03:54:29;5.00;99.90
21123;DHT22;10719;48.130;11.630;2022-12-29T03:56:55;5.00;99.90
21123;DHT22;10719;48.130;11.630;2022-12-29T03:59:21;5.00;99.90
21123;DHT22;10719;48.130;11.630;2022-12-29T04:01:46;5.10;99.90
21123;DHT22;10719;48.130;11.630;2022-12-29T04:04:12;5.30;99.90
21123;DHT22;10719;48.130;11.630;2022-12-29T04:06:38;5.30;99.90
21123;DHT22;10719;48.130;11.630;2022-12-29T04:09:04;5.30;99.90
21123;DHT22;10719;48.130;11.630;2022-12-29T04:11:30;5.40;99.90
21123;DHT22;10719;48.130;11.630;2022-12-29T04:13:56;5.40;99.90
21123;DHT22;10719;48.130;11.630;2022-12-29T04:16:21;5.50;99.90
21123;DHT22;10719;48.130;11.630;2022-12-29T04:18:47;5.60;99.90
21123;DHT22;10719;48.130;11.630;2022-12-29T04:21:12;5.60;99.90
21123;DHT22;10719;48.130;11.630;2022-12-29T04:23:38;5.70;99.90
21123;DHT22;10719;48.130;11.630;2022-12-29T04:26:05;5.70;99.90
21123;DHT22;10719;48.130;11.630;2022-12-29T04:28:35;5.70;99.90
21123;DHT22;10719;48.130;11.630;2022-12-29T04:31:01;5.70;99.90
21123;DHT22;10719;48.130;11.630;2022-12-29T04:33:27;5.70;99.90
21123;DHT22;10719;48.130;11.630;2022-12-29T04:35:53;5.70;99.90
21123;DHT22;10719;48.130;11.630;2022-12-29T04:38:20;5.70;99.90
21123;DHT22;10719;48.130;11.630;2022-12-29T04:40:46;5.80;99.90
21123;DHT22;10719;48.130;11.630;2022-12-29T04:43:12;5.80;99.90
21123;DHT22;10719;48.130;11.630;2022-12-29T04:45:42;5.70;99.90
21123;DHT22;10719;48.130;11.630;2022-12-29T04:48:08;5.80;99.90
21123;DHT22;10719;48.130;11.630;2022-12-29T04:50:34;5.80;99.90
21123;DHT22;10719;48.130;11.630;2022-12-29T04:52:59;5.80;99.90
21123;DHT22;10719;48.130;11.630;2022-12-29T04:55:25;5.80;99.90
21123;DHT22;10719;48.130;11.630;2022-12-29T04:57:51;5.70;99.90
21123;DHT22;10719;48.130;11.630;2022-12-29T05:00:17;5.80;99.90
21123;DHT22;10719;48.130;11.630;2022-12-29T05:02:43;5.80;99.90
21123;DHT22;10719;48.130;11.630;2022-12-29T05:05:09;5.80;99.90
21123;DHT22;10719;48.130;11.630;2022-12-29T05:07:34;5.80;99.90
21123;DHT22;10719;48.130;11.630;2022-12-29T05:10:00;5.70;99.90
21123;DHT22;10719;48.130;11.630;2022-12-29T05:12:29;5.80;99.90
21123;DHT22;10719;48.130;11.630;2022-12-29T05:14:55;5.80;99.90
21123;DHT22;10719;48.130;11.630;2022-12-29T05:17:20;5.80;99.90
21123;DHT22;10719;48.130;11.630;2022-12-29T05:19:46;5.70;99.90
21123;DHT22;10719;48.130;11.630;2022-12-29T05:22:12;5.80;99.90
21123;DHT22;10719;48.130;11.630;2022-12-29T05:24:37;5.80;99.90
21123;DHT22;10719;48.130;11.630;2022-12-29T05:27:03;5.80;99.90
21123;DHT22;10719;48.130;11.630;2022-12-29T05:29:28;5.80;99.90
21123;DHT22;10719;48.130;11.630;2022-12-29T05:31:54;5.80;99.90
21123;DHT22;10719;48.130;11.630;2022-12-29T05:34:19;5.80;99.90
21123;DHT22;10719;48.130;11.630;2022-12-29T05:36:45;5.80;99.90
21123;DHT22;10719;48.130;11.630;2022-12-29T05:39:11;5.80;99.90
21123;DHT22;10719;48.130;11.630;2022-12-29T05:41:36;5.70;99.90
21123;DHT22;10719;48.130;11.630;2022-12-29T05:44:02;5.80;99.90
21123;DHT22;10719;48.130;11.630;2022-12-29T05:46:28;5.80;99.90
21123;DHT22;10719;48.130;11.630;2022-12-29T05:48:53;5.80;99.90
21123;DHT22;10719;48.130;11.630;2022-12-29T05:51:19;5.80;99.90
21123;DHT22;10719;48.130;11.630;2022-12-29T05:53:44;5.80;99.90
21123;DHT22;10719;48.130;11.630;2022-12-29T05:56:10;5.80;99.90
21123;DHT22;10719;48.130;11.630;2022-12-29T05:58:35;5.80;99.90
21123;DHT22;10719;48.130;11.630;2022-12-29T06:01:01;5.80;99.90
21123;DHT22;10719;48.130;11.630;2022-12-29T06:03:27;5.70;99.90
21123;DHT22;10719;48.130;11.630;2022-12-29T06:05:52;5.70;99.90
21123;DHT22;10719;48.130;11.630;2022-12-29T06:08:18;5.70;99.90
21123;DHT22;10719;48.130;11.630;2022-12-29T06:10:43;5.70;99.90
21123;DHT22;10719;48.130;11.630;2022-12-29T06:13:09;5.60;99.90
21123;DHT22;10719;48.130;11.630;2022-12-29T06:15:35;5.60;99.90
21123;DHT22;10719;48.130;11.630;2022-12-29T06:18:00;5.70;99.90
21123;DHT22;10719;48.130;11.630;2022-12-29T06:20:26;5.70;99.90
21123;DHT22;10719;48.130;11.630;2022-12-29T06:22:52;5.70;99.90
21123;DHT22;10719;48.130;11.630;2022-12-29T06:25:18;5.70;99.90
21123;DHT22;10719;48.130;11.630;2022-12-29T06:27:43;5.60;99.90
21123;DHT22;10719;48.130;11.630;2022-12-29T06:30:10;5.60;99.90
21123;DHT22;10719;48.130;11.630;2022-12-29T06:32:36;5.60;99.90
21123;DHT22;10719;48.130;11.630;2022-12-29T06:35:03;5.50;99.90
21123;DHT22;10719;48.130;11.630;2022-12-29T06:37:29;5.60;99.90
21123;DHT22;10719;48.130;11.630;2022-12-29T06:39:55;5.50;99.90
21123;DHT22;10719;48.130;11.630;2022-12-29T06:42:21;5.60;99.90
21123;DHT22;10719;48.130;11.630;2022-12-29T06:44:46;5.50;99.90
21123;DHT22;10719;48.130;11.630;2022-12-29T06:47:12;5.60;99.90
21123;DHT22;10719;48.130;11.630;2022-12-29T06:49:37;5.60;99.90
21123;DHT22;10719;48.130;11.630;2022-12-29T06:52:03;5.60;99.90
21123;DHT22;10719;48.130;11.630;2022-12-29T06:54:30;5.60;99.90
21123;DHT22;10719;48.130;11.630;2022-12-29T06:56:56;5.60;99.90
21123;DHT22;10719;48.130;11.630;2022-12-29T06:59:22;5.60;99.90
21123;DHT22;10719;48.130;11.630;2022-12-29T07:01:48;5.60;99.90
21123;DHT22;10719;48.130;11.630;2022-12-29T07:04:13;5.60;99.90
21123;DHT22;10719;48.130;11.630;2022-12-29T07:06:39;5.70;99.90
21123;DHT22;10719;48.130;11.630;2022-12-29T07:09:06;5.60;99.90
21123;DHT22;10719;48.130;11.630;2022-12-29T07:11:32;5.60;99.90
21123;DHT22;10719;48.130;11.630;2022-12-29T07:13:58;5.60;99.90
21123;DHT22;10719;48.130;11.630;2022-12-29T07:16:24;5.60;99.90
21123;DHT22;10719;48.130;11.630;2022-12-29T07:18:50;5.60;99.90
21123;DHT22;10719;48.130;11.630;2022-12-29T07:21:17;5.70;99.90
21123;DHT22;10719;48.130;11.630;2022-12-29T07:23:42;5.80;99.90
21123;DHT22;10719;48.130;11.630;2022-12-29T07:26:11;5.80;99.90
21123;DHT22;10719;48.130;11.630;2022-12-29T07:28:37;5.90;99.90
21123;DHT22;10719;48.130;11.630;2022-12-29T07:31:04;5.80;99.90
21123;DHT22;10719;48.130;11.630;2022-12-29T07:33:30;5.90;99.90
21123;DHT22;10719;48.130;11.630;2022-12-29T07:35:56;5.90;99.90
21123;DHT22;10719;48.130;11.630;2022-12-29T07:38:22;5.90;99.90
21123;DHT22;10719;48.130;11.630;2022-12-29T07:40:47;5.90;99.90
21123;DHT22;10719;48.130;11.630;2022-12-29T07:43:13;6.00;99.90
21123;DHT22;10719;48.130;11.630;2022-12-29T07:45:38;6.00;99.90
21123;DHT22;10719;48.130;11.630;2022-12-29T07:48:05;6.00;99.90
21123;DHT22;10719;48.130;11.630;2022-12-29T07:50:35;6.00;99.90
21123;DHT22;10719;48.130;11.630;2022-12-29T07:53:01;6.10;99.90
21123;DHT22;10719;48.130;11.630;2022-12-29T07:55:27;6.10;99.90
21123;DHT22;10719;48.130;11.630;2022-12-29T07:57:53;6.10;99.90
21123;DHT22;10719;48.130;11.630;2022-12-29T08:00:20;6.20;99.90
21123;DHT22;10719;48.130;11.630;2022-12-29T08:02:45;6.20;99.90
21123;DHT22;10719;48.130;11.630;2022-12-29T08:05:11;6.20;99.90
21123;DHT22;10719;48.130;11.630;2022-12-29T08:07:37;6.20;99.90
21123;DHT22;10719;48.130;11.630;2022-12-29T08:10:03;6.30;99.90
21123;DHT22;10719;48.130;11.630;2022-12-29T08:12:28;6.40;99.90
21123;DHT22;10719;48.130;11.630;2022-12-29T08:14:54;6.50;99.90
21123;DHT22;10719;48.130;11.630;2022-12-29T08:17:19;6.50;99.90
21123;DHT22;10719;48.130;11.630;2022-12-29T08:19:45;6.60;99.90
21123;DHT22;10719;48.130;11.630;2022-12-29T08:22:11;6.60;99.90
21123;DHT22;10719;48.130;11.630;2022-12-29T08:24:36;6.60;99.90
21123;DHT22;10719;48.130;11.630;2022-12-29T08:27:02;6.80;99.90
21123;DHT22;10719;48.130;11.630;2022-12-29T08:29:27;6.80;99.90
21123;DHT22;10719;48.130;11.630;2022-12-29T08:31:53;6.80;99.90
21123;DHT22;10719;48.130;11.630;2022-12-29T08:34:18;6.90;99.90
21123;DHT22;10719;48.130;11.630;2022-12-29T08:36:44;6.90;99.90
21123;DHT22;10719;48.130;11.630;2022-12-29T08:39:10;7.00;99.90
21123;DHT22;10719;48.130;11.630;2022-12-29T08:41:35;7.00;99.90
21123;DHT22;10719;48.130;11.630;2022-12-29T08:44:01;7.00;99.90
21123;DHT22;10719;48.130;11.630;2022-12-29T08:46:26;7.10;99.90
21123;DHT22;10719;48.130;11.630;2022-12-29T08:48:53;7.20;99.90
21123;DHT22;10719;48.130;11.630;2022-12-29T08:51:19;7.50;99.90
21123;DHT22;10719;48.130;11.630;2022-12-29T08:53:44;7.60;99.90
21123;DHT22;10719;48.130;11.630;2022-12-29T08:56:10;7.80;99.90
21123;DHT22;10719;48.130;11.630;2022-12-29T08:58:37;7.90;99.90
21123;DHT22;10719;48.130;11.630;2022-12-29T09:01:03;7.90;99.90
21123;DHT22;10719;48.130;11.630;2022-12-29T09:03:29;7.90;99.90
21123;DHT22;10719;48.130;11.630;2022-12-29T09:05:55;8.00;99.90
21123;DHT22;10719;48.130;11.630;2022-12-29T09:08:21;8.00;99.90
21123;DHT22;10719;48.130;11.630;2022-12-29T09:10:47;8.00;99.90
21123;DHT22;10719;48.130;11.630;2022-12-29T09:13:14;8.00;99.90
21123;DHT22;10719;48.130;11.630;2022-12-29T09:15:40;7.90;99.90
21123;DHT22;10719;48.130;11.630;2022-12-29T09:18:08;7.90;99.90
21123;DHT22;10719;48.130;11.630;2022-12-29T09:20:34;8.00;99.90
21123;DHT22;10719;48.130;11.630;2022-12-29T09:23:00;8.10;99.90
21123;DHT22;10719;48.130;11.630;2022-12-29T09:25:26;8.20;99.90
21123;DHT22;10719;48.130;11.630;2022-12-29T09:27:52;8.30;99.90
21123;DHT22;10719;48.130;11.630;2022-12-29T09:30:20;8.30;99.90
21123;DHT22;10719;48.130;11.630;2022-12-29T09:32:46;8.50;99.90
21123;DHT22;10719;48.130;11.630;2022-12-29T09:35:12;8.70;99.90
21123;DHT22;10719;48.130;11.630;2022-12-29T09:37:38;8.80;99.90
21123;DHT22;10719;48.130;11.630;2022-12-29T09:40:04;8.90;99.90
21123;DHT22;10719;48.130;11.630;2022-12-29T09:42:42;9.10;99.90
21123;DHT22;10719;48.130;11.630;2022-12-29T09:45:15;9.30;99.90
21123;DHT22;10719;48.130;11.630;2022-12-29T09:47:43;9.70;99.90
21123;DHT22;10719;48.130;11.630;2022-12-29T09:50:24;9.80;99.90
21123;DHT22;10719;48.130;11.630;2022-12-29T09:53:09;10.00;99.90
21123;DHT22;10719;48.130;11.630;2022-12-29T09:55:40;10.10;99.90
21123;DHT22;10719;48.130;11.630;2022-12-29T09:58:39;10.20;99.90
21123;DHT22;10719;48.130;11.630;2022-12-29T10:01:17;10.20;99.90
21123;DHT22;10719;48.130;11.630;2022-12-29T10:03:55;10.20;99.90
21123;DHT22;10719;48.130;11.630;2022-12-29T10:14:42;10.20;99.90
21123;DHT22;10719;48.130;11.630;2022-12-29T10:20:24;10.30;99.90
21123;DHT22;10719;48.130;11.630;2022-12-29T10:25:47;10.30;99.90
21123;DHT22;10719;48.130;11.630;2022-12-29T10:28:19;10.40;99.90
21123;DHT22;10719;48.130;11.630;2022-12-29T10:30:48;10.40;99.90
21123;DHT22;10719;48.130;11.630;2022-12-29T10:33:34;10.40;99.90
21123;DHT22;10719;48.130;11.630;2022-12-29T10:36:16;10.50;99.90
21123;DHT22;10719;48.130;11.630;2022-12-29T10:39:05;10.60;99.90
21123;DHT22;10719;48.130;11.630;2022-12-29T10:41:38;10.50;99.90
21123;DHT22;10719;48.130;11.630;2022-12-29T10:44:09;10.50;99.90
21123;DHT22;10719;48.130;11.630;2022-12-29T10:46:37;10.50;99.90
21123;DHT22;10719;48.130;11.630;2022-12-29T10:49:05;10.50;99.90
21123;DHT22;10719;48.130;11.630;2022-12-29T10:51:34;10.60;99.90
21123;DHT22;10719;48.130;11.630;2022-12-29T10:54:17;10.70;99.90
21123;DHT22;10719;48.130;11.630;2022-12-29T10:56:49;10.70;99.90
21123;DHT22;10719;48.130;11.630;2022-12-29T10:59:28;10.80;99.90
21123;DHT22;10719;48.130;11.630;2022-12-29T11:07:21;10.80;99.90
21123;DHT22;10719;48.130;11.630;2022-12-29T11:09:49;10.90;99.90
21123;DHT22;10719;48.130;11.630;2022-12-29T11:14:50;11.00;99.90
21123;DHT22;10719;48.130;11.630;2022-12-29T11:17:25;11.20;99.90
21123;DHT22;10719;48.130;11.630;2022-12-29T11:19:51;11.50;99.90
21123;DHT22;10719;48.130;11.630;2022-12-29T11:22:28;11.60;99.90
21123;DHT22;10719;48.130;11.630;2022-12-29T11:24:54;11.70;99.90
21123;DHT22;10719;48.130;11.630;2022-12-29T11:27:29;11.90;99.90
21123;DHT22;10719;48.130;11.630;2022-12-29T11:29:55;12.10;99.90
21123;DHT22;10719;48.130;11.630;2022-12-29T11:32:23;12.20;99.90
21123;DHT22;10719;48.130;11.630;2022-12-29T11:34:49;12.20;99.90
21123;DHT22;10719;48.130;11.630;2022-12-29T11:37:29;12.30;99.90
21123;DHT22;10719;48.130;11.630;2022-12-29T11:40:02;12.40;99.90
21123;DHT22;10719;48.130;11.630;2022-12-29T11:42:36;12.30;99.90
21123;DHT22;10719;48.130;11.630;2022-12-29T11:45:09;12.40;99.90
21123;DHT22;10719;48.130;11.630;2022-12-29T11:47:43;12.50;99.90
21123;DHT22;10719;48.130;11.630;2022-12-29T11:50:26;12.50;99.90
21123;DHT22;10719;48.130;11.630;2022-12-29T11:55:54;12.60;99.90
21123;DHT22;10719;48.130;11.630;2022-12-29T11:58:20;12.50;99.90
21123;DHT22;10719;48.130;11.630;2022-12-29T12:00:46;12.50;99.90
21123;DHT22;10719;48.130;11.630;2022-12-29T12:03:23;12.40;99.90
21123;DHT22;10719;48.130;11.630;2022-12-29T12:06:01;12.30;99.90
21123;DHT22;10719;48.130;11.630;2022-12-29T12:08:39;12.30;99.90
21123;DHT22;10719;48.130;11.630;2022-12-29T12:16:24;12.30;99.90
21123;DHT22;10719;48.130;11.630;2022-12-29T12:19:00;12.30;99.90
21123;DHT22;10719;48.130;11.630;2022-12-29T12:21:55;12.20;99.90
21123;DHT22;10719;48.130;11.630;2022-12-29T12:33:00;12.60;99.90
21123;DHT22;10719;48.130;11.630;2022-12-29T12:38:15;13.00;99.90
21123;DHT22;10719;48.130;11.630;2022-12-29T12:41:05;12.90;99.90
21123;DHT22;10719;48.130;11.630;2022-12-29T12:51:40;12.70;99.90
21123;DHT22;10719;48.130;11.630;2022-12-29T12:54:20;12.80;99.90
21123;DHT22;10719;48.130;11.630;2022-12-29T13:02:19;12.80;99.90
21123;DHT22;10719;48.130;11.630;2022-12-29T13:04:56;12.90;99.90
21123;DHT22;10719;48.130;11.630;2022-12-29T13:10:52;12.90;99.90
21123;DHT22;10719;48.130;11.630;2022-12-29T13:16:09;12.90;99.90
21123;DHT22;10719;48.130;11.630;2022-12-29T13:24:21;12.70;99.90
21123;DHT22;10719;48.130;11.630;2022-12-29T13:26:50;12.70;99.90
21123;DHT22;10719;48.130;11.630;2022-12-29T13:29:29;12.70;99.90
21123;DHT22;10719;48.130;11.630;2022-12-29T13:37:49;12.70;99.90
21123;DHT22;10719;48.130;11.630;2022-12-29T13:40:19;12.60;99.90
21123;DHT22;10719;48.130;11.630;2022-12-29T13:42:47;12.70;99.90
21123;DHT22;10719;48.130;11.630;2022-12-29T13:45:17;12.50;99.90
21123;DHT22;10719;48.130;11.630;2022-12-29T13:47:59;12.50;99.90
21123;DHT22;10719;48.130;11.630;2022-12-29T13:50:29;12.50;99.90
21123;DHT22;10719;48.130;11.630;2022-12-29T13:55:39;12.40;99.90
21123;DHT22;10719;48.130;11.630;2022-12-29T13:58:22;12.30;99.90
21123;DHT22;10719;48.130;11.630;2022-12-29T14:03:47;12.20;99.90
21123;DHT22;10719;48.130;11.630;2022-12-29T14:08:54;12.00;99.90
21123;DHT22;10719;48.130;11.630;2022-12-29T14:11:22;11.90;99.90
21123;DHT22;10719;48.130;11.630;2022-12-29T14:13:50;11.90;99.90
21123;DHT22;10719;48.130;11.630;2022-12-29T14:16:31;11.80;99.90
21123;DHT22;10719;48.130;11.630;2022-12-29T14:19:12;11.70;99.90
21123;DHT22;10719;48.130;11.630;2022-12-29T14:21:39;11.60;99.90
21123;DHT22;10719;48.130;11.630;2022-12-29T14:26:52;11.40;99.90
21123;DHT22;10719;48.130;11.630;2022-12-29T14:31:52;11.30;99.90
21123;DHT22;10719;48.130;11.630;2022-12-29T14:36:54;11.20;99.90
21123;DHT22;10719;48.130;11.630;2022-12-29T14:39:40;11.10;99.90
21123;DHT22;10719;48.130;11.630;2022-12-29T14:47:38;10.90;99.90
21123;DHT22;10719;48.130;11.630;2022-12-29T14:58:01;10.50;99.90
21123;DHT22;10719;48.130;11.630;2022-12-29T15:00:30;10.50;99.90
21123;DHT22;10719;48.130;11.630;2022-12-29T15:03:22;10.40;99.90
21123;DHT22;10719;48.130;11.630;2022-12-29T15:08:36;10.20;99.90
21123;DHT22;10719;48.130;11.630;2022-12-29T15:11:22;10.20;99.90
21123;DHT22;10719;48.130;11.630;2022-12-29T15:13:49;10.10;99.90
21123;DHT22;10719;48.130;11.630;2022-12-29T15:18:49;10.00;99.90
21123;DHT22;10719;48.130;11.630;2022-12-29T15:21:15;10.00;99.90
21123;DHT22;10719;48.130;11.630;2022-12-29T15:23:44;9.90;99.90
21123;DHT22;10719;48.130;11.630;2022-12-29T15:26:10;9.80;99.90
21123;DHT22;10719;48.130;11.630;2022-12-29T15:28:42;9.80;99.90
21123;DHT22;10719;48.130;11.630;2022-12-29T15:31:19;9.90;99.90
21123;DHT22;10719;48.130;11.630;2022-12-29T15:33:49;9.80;99.90
21123;DHT22;10719;48.130;11.630;2022-12-29T15:36:26;9.80;99.90
21123;DHT22;10719;48.130;11.630;2022-12-29T15:38:53;9.70;99.90
21123;DHT22;10719;48.130;11.630;2022-12-29T15:41:36;9.60;99.90
21123;DHT22;10719;48.130;11.630;2022-12-29T15:46:55;9.40;99.90
21123;DHT22;10719;48.130;11.630;2022-12-29T15:49:21;9.30;99.90
21123;DHT22;10719;48.130;11.630;2022-12-29T15:51:49;9.30;99.90
21123;DHT22;10719;48.130;11.630;2022-12-29T15:54:17;9.30;99.90
21123;DHT22;10719;48.130;11.630;2022-12-29T15:56:44;9.30;99.90
21123;DHT22;10719;48.130;11.630;2022-12-29T15:59:45;9.30;99.90
21123;DHT22;10719;48.130;11.630;2022-12-29T16:02:11;9.30;99.90
21123;DHT22;10719;48.130;11.630;2022-12-29T16:04:38;9.20;99.90
21123;DHT22;10719;48.130;11.630;2022-12-29T16:07:06;9.20;99.90
21123;DHT22;10719;48.130;11.630;2022-12-29T16:09:46;9.20;99.90
21123;DHT22;10719;48.130;11.630;2022-12-29T16:12:21;9.20;99.90
21123;DHT22;10719;48.130;11.630;2022-12-29T16:14:51;9.10;99.90
21123;DHT22;10719;48.130;11.630;2022-12-29T16:17:23;9.00;99.90
21123;DHT22;10719;48.130;11.630;2022-12-29T16:20:00;8.90;99.90
21123;DHT22;10719;48.130;11.630;2022-12-29T16:22:33;8.90;99.90
21123;DHT22;10719;48.130;11.630;2022-12-29T16:27:46;8.80;99.90
21123;DHT22;10719;48.130;11.630;2022-12-29T16:30:24;8.70;99.90
21123;DHT22;10719;48.130;11.630;2022-12-29T16:32:55;8.70;99.90
21123;DHT22;10719;48.130;11.630;2022-12-29T16:35:38;8.60;99.90
21123;DHT22;10719;48.130;11.630;2022-12-29T16:38:17;8.60;99.90
21123;DHT22;10719;48.130;11.630;2022-12-29T16:40:57;8.60;99.90
21123;DHT22;10719;48.130;11.630;2022-12-29T16:43:36;8.60;99.90
21123;DHT22;10719;48.130;11.630;2022-12-29T16:46:27;8.50;99.90
21123;DHT22;10719;48.130;11.630;2022-12-29T16:48:55;8.50;99.90
21123;DHT22;10719;48.130;11.630;2022-12-29T16:51:33;8.50;99.90
21123;DHT22;10719;48.130;11.630;2022-12-29T16:53:59;8.40;99.90
21123;DHT22;10719;48.130;11.630;2022-12-29T16:56:31;8.30;99.90
21123;DHT22;10719;48.130;11.630;2022-12-29T16:59:07;8.30;99.90
21123;DHT22;10719;48.130;11.630;2022-12-29T17:01:38;8.30;99.90
21123;DHT22;10719;48.130;11.630;2022-12-29T17:04:09;8.40;99.90
21123;DHT22;10719;48.130;11.630;2022-12-29T17:06:36;8.30;99.90
21123;DHT22;10719;48.130;11.630;2022-12-29T17:09:02;8.30;99.90
21123;DHT22;10719;48.130;11.630;2022-12-29T17:11:31;8.30;99.90
21123;DHT22;10719;48.130;11.630;2022-12-29T17:14:47;8.30;99.90
21123;DHT22;10719;48.130;11.630;2022-12-29T17:20:03;8.50;99.90
21123;DHT22;10719;48.130;11.630;2022-12-29T17:22:29;8.80;99.90
21123;DHT22;10719;48.130;11.630;2022-12-29T17:24:58;9.00;99.90
21123;DHT22;10719;48.130;11.630;2022-12-29T17:32:37;9.40;99.90
21123;DHT22;10719;48.130;11.630;2022-12-29T17:35:03;9.40;99.90
21123;DHT22;10719;48.130;11.630;2022-12-29T17:37:30;9.30;99.90
21123;DHT22;10719;48.130;11.630;2022-12-29T17:39:56;9.30;99.90
21123;DHT22;10719;48.130;11.630;2022-12-29T17:42:22;9.40;99.90
21123;DHT22;10719;48.130;11.630;2022-12-29T17:44:47;9.40;99.90
21123;DHT22;10719;48.130;11.630;2022-12-29T17:47:14;9.40;99.90
21123;DHT22;10719;48.130;11.630;2022-12-29T17:49:40;9.50;99.90
21123;DHT22;10719;48.130;11.630;2022-12-29T17:52:11;9.50;99.90
21123;DHT22;10719;48.130;11.630;2022-12-29T17:54:45;9.50;99.90
21123;DHT22;10719;48.130;11.630;2022-12-29T17:57:14;9.40;99.90
21123;DHT22;10719;48.130;11.630;2022-12-29T17:59:40;9.20;99.90
21123;DHT22;10719;48.130;11.630;2022-12-29T18:02:27;9.10;99.90
21123;DHT22;10719;48.130;11.630;2022-12-29T18:04:55;8.90;99.90
21123;DHT22;10719;48.130;11.630;2022-12-29T18:07:21;8.90;99.90
21123;DHT22;10719;48.130;11.630;2022-12-29T18:09:47;8.90;99.90
21123;DHT22;10719;48.130;11.630;2022-12-29T18:12:38;8.90;99.90
21123;DHT22;10719;48.130;11.630;2022-12-29T18:15:05;8.80;99.90
21123;DHT22;10719;48.130;11.630;2022-12-29T18:17:31;8.70;99.90
21123;DHT22;10719;48.130;11.630;2022-12-29T18:19:56;8.70;99.90
21123;DHT22;10719;48.130;11.630;2022-12-29T18:22:24;8.60;99.90
21123;DHT22;10719;48.130;11.630;2022-12-29T18:24:50;8.70;99.90
21123;DHT22;10719;48.130;11.630;2022-12-29T18:27:16;8.60;99.90
21123;DHT22;10719;48.130;11.630;2022-12-29T18:29:44;8.60;99.90